sensor_id;sensor_type;location;lat;lon;timestamp;pressure;altitude;pressure_sealevel;temperature;humidity
39363;BME280;25088;43.238;23.110;2022-07-06T00:01:48;96369.94;;;21.31;100.00
39363;BME280;25088;43.238;23.110;2022-07-06T00:04:13;96368.47;;;21.34;100.00
39363;BME280;25088;43.238;23.110;2022-07-06T00:06:39;96371.72;;;21.19;100.00
39363;BME280;25088;43.238;23.110;2022-07-06T00:09:05;96377.25;;;21.27;100.00
39363;BME280;25088;43.238;23.110;2022-07-06T00:11:31;96374.34;;;21.24;100.00
39363;BME280;25088;43.238;23.110;2022-07-06T00:13:56;96385.44;;;21.32;100.00
39363;BME280;25088;43.238;23.110;2022-07-06T00:16:22;96385.44;;;21.32;100.00
39363;BME280;25088;43.238;23.110;2022-07-06T00:18:48;96385.78;;;21.39;100.00
39363;BME280;25088;43.238;23.110;2022-07-06T00:21:13;96354.72;;;21.11;100.00
39363;BME280;25088;43.238;23.110;2022-07-06T00:23:39;96385.59;;;21.19;100.00
39363;BME280;25088;43.238;23.110;2022-07-06T00:26:04;96370.91;;;21.09;100.00
39363;BME280;25088;43.238;23.110;2022-07-06T00:28:30;96378.91;;;21.02;100.00
39363;BME280;25088;43.238;23.110;2022-07-06T00:30:56;96370.75;;;21.06;100.00
39363;BME280;25088;43.238;23.110;2022-07-06T00:33:21;96384.94;;;21.04;100.00
39363;BME280;25088;43.238;23.110;2022-07-06T00:35:47;96382.00;;;21.01;100.00
39363;BME280;25088;43.238;23.110;2022-07-06T00:38:13;96390.81;;;21.11;100.00
39363;BME280;25088;43.238;23.110;2022-07-06T00:40:38;96365.53;;;21.04;100.00
39363;BME280;25088;43.238;23.110;2022-07-06T00:43:04;96372.53;;;21.02;100.00
39363;BME280;25088;43.238;23.110;2022-07-06T00:45:29;96367.97;;;20.88;100.00
39363;BME280;25088;43.238;23.110;2022-07-06T00:47:55;96359.66;;;20.88;99.88
39363;BME280;25088;43.238;23.110;2022-07-06T00:50:21;96367.97;;;20.80;100.00
39363;BME280;25088;43.238;23.110;2022-07-06T00:52:52;96359.78;;;20.83;100.00
39363;BME280;25088;43.238;23.110;2022-07-06T00:55:23;96377.44;;;20.96;100.00
39363;BME280;25088;43.238;23.110;2022-07-06T00:57:49;96382.50;;;20.85;100.00
39363;BME280;25088;43.238;23.110;2022-07-06T01:00:17;96375.47;;;20.88;100.00
39363;BME280;25088;43.238;23.110;2022-07-06T01:02:43;96372.84;;;20.74;100.00
39363;BME280;25088;43.238;23.110;2022-07-06T01:05:10;96363.72;;;20.91;100.00
39363;BME280;25088;43.238;23.110;2022-07-06T01:07:38;96378.75;;;20.90;100.00
39363;BME280;25088;43.238;23.110;2022-07-06T01:10:04;96330.56;;;20.60;100.00
39363;BME280;25088;43.238;23.110;2022-07-06T01:12:30;96380.22;;;20.96;99.55
39363;BME280;25088;43.238;23.110;2022-07-06T01:14:56;96371.03;;;20.78;100.00
39363;BME280;25088;43.238;23.110;2022-07-06T01:17:22;96379.56;;;20.90;100.00
39363;BME280;25088;43.238;23.110;2022-07-06T01:19:49;96363.38;;;20.92;99.85
39363;BME280;25088;43.238;23.110;2022-07-06T01:22:14;96383.00;;;21.13;99.06
39363;BME280;25088;43.238;23.110;2022-07-06T01:24:40;96380.53;;;21.03;99.50
39363;BME280;25088;43.238;23.110;2022-07-06T01:27:06;96378.56;;;20.86;99.98
39363;BME280;25088;43.238;23.110;2022-07-06T01:29:32;96360.94;;;20.74;99.14
39363;BME280;25088;43.238;23.110;2022-07-06T01:31:58;96384.09;;;20.78;99.36
39363;BME280;25088;43.238;23.110;2022-07-06T01:34:23;96387.69;;;20.70;100.00
39363;BME280;25088;43.238;23.110;2022-07-06T01:36:49;96387.84;;;20.64;100.00
39363;BME280;25088;43.238;23.110;2022-07-06T01:39:14;96390.63;;;20.64;100.00
39363;BME280;25088;43.238;23.110;2022-07-06T01:41:40;96395.19;;;20.78;100.00
39363;BME280;25088;43.238;23.110;2022-07-06T01:44:06;96397.16;;;20.69;100.00
39363;BME280;25088;43.238;23.110;2022-07-06T01:46:31;96371.69;;;20.58;100.00
39363;BME280;25088;43.238;23.110;2022-07-06T01:48:58;96387.84;;;20.56;100.00
39363;BME280;25088;43.238;23.110;2022-07-06T01:51:24;96380.00;;;20.67;100.00
39363;BME280;25088;43.238;23.110;2022-07-06T01:53:50;96389.50;;;20.74;100.00
39363;BME280;25088;43.238;23.110;2022-07-06T01:56:16;96393.06;;;20.66;99.49
39363;BME280;25088;43.238;23.110;2022-07-06T01:58:46;96370.16;;;20.43;100.00
39363;BME280;25088;43.238;23.110;2022-07-06T02:01:20;96402.19;;;20.58;100.00
39363;BME280;25088;43.238;23.110;2022-07-06T02:03:46;96409.91;;;20.70;100.00
39363;BME280;25088;43.238;23.110;2022-07-06T02:06:12;96410.19;;;20.68;100.00
39363;BME280;25088;43.238;23.110;2022-07-06T02:08:38;96405.47;;;20.60;100.00
39363;BME280;25088;43.238;23.110;2022-07-06T02:11:08;96413.97;;;20.72;100.00
39363;BME280;25088;43.238;23.110;2022-07-06T02:13:35;96395.19;;;20.60;100.00
39363;BME280;25088;43.238;23.110;2022-07-06T02:16:00;96396.34;;;20.59;100.00
39363;BME280;25088;43.238;23.110;2022-07-06T02:18:26;96406.44;;;20.55;100.00
39363;BME280;25088;43.238;23.110;2022-07-06T02:20:52;96407.88;;;20.53;100.00
39363;BME280;25088;43.238;23.110;2022-07-06T02:23:17;96430.06;;;20.53;100.00
39363;BME280;25088;43.238;23.110;2022-07-06T02:25:43;96405.91;;;20.45;100.00
39363;BME280;25088;43.238;23.110;2022-07-06T02:28:08;96424.22;;;20.54;100.00
39363;BME280;25088;43.238;23.110;2022-07-06T02:30:34;96423.56;;;20.49;100.00
39363;BME280;25088;43.238;23.110;2022-07-06T02:32:59;96406.78;;;20.54;98.83
39363;BME280;25088;43.238;23.110;2022-07-06T02:35:25;96423.09;;;20.73;98.41
39363;BME280;25088;43.238;23.110;2022-07-06T02:37:51;96406.47;;;20.64;98.51
39363;BME280;25088;43.238;23.110;2022-07-06T02:40:16;96432.38;;;20.68;98.56
39363;BME280;25088;43.238;23.110;2022-07-06T02:42:42;96434.03;;;20.69;98.38
39363;BME280;25088;43.238;23.110;2022-07-06T02:45:08;96437.75;;;20.56;99.26
39363;BME280;25088;43.238;23.110;2022-07-06T02:47:34;96435.94;;;20.51;99.88
39363;BME280;25088;43.238;23.110;2022-07-06T02:50:00;96432.69;;;20.58;100.00
39363;BME280;25088;43.238;23.110;2022-07-06T02:52:25;96432.03;;;20.52;100.00
39363;BME280;25088;43.238;23.110;2022-07-06T02:54:51;96413.88;;;20.46;99.27
39363;BME280;25088;43.238;23.110;2022-07-06T02:57:17;96441.53;;;20.60;98.94
39363;BME280;25088;43.238;23.110;2022-07-06T02:59:43;96398.09;;;20.47;98.08
39363;BME280;25088;43.238;23.110;2022-07-06T03:02:09;96432.53;;;20.63;98.96
39363;BME280;25088;43.238;23.110;2022-07-06T03:04:34;96433.66;;;20.53;100.00
39363;BME280;25088;43.238;23.110;2022-07-06T03:07:00;96428.44;;;20.52;100.00
39363;BME280;25088;43.238;23.110;2022-07-06T03:09:26;96413.47;;;20.61;98.83
39363;BME280;25088;43.238;23.110;2022-07-06T03:11:52;96413.88;;;20.46;99.62
39363;BME280;25088;43.238;23.110;2022-07-06T03:14:18;96446.09;;;20.73;99.14
39363;BME280;25088;43.238;23.110;2022-07-06T03:16:43;96440.56;;;20.64;99.17
39363;BME280;25088;43.238;23.110;2022-07-06T03:19:09;96447.53;;;20.53;99.23
39363;BME280;25088;43.238;23.110;2022-07-06T03:21:34;96435.63;;;20.53;99.54
39363;BME280;25088;43.238;23.110;2022-07-06T03:24:00;96443.28;;;20.47;99.06
39363;BME280;25088;43.238;23.110;2022-07-06T03:26:25;96435.31;;;20.54;98.05
39363;BME280;25088;43.238;23.110;2022-07-06T03:28:51;96424.84;;;20.51;97.22
39363;BME280;25088;43.238;23.110;2022-07-06T03:31:16;96419.47;;;20.63;96.72
39363;BME280;25088;43.238;23.110;2022-07-06T03:33:42;96436.00;;;20.69;97.54
39363;BME280;25088;43.238;23.110;2022-07-06T03:36:07;96402.38;;;20.61;97.95
39363;BME280;25088;43.238;23.110;2022-07-06T03:38:34;96424.41;;;20.67;98.71
39363;BME280;25088;43.238;23.110;2022-07-06T03:40:59;96401.41;;;20.75;97.56
39363;BME280;25088;43.238;23.110;2022-07-06T03:43:25;96434.88;;;20.87;98.56
39363;BME280;25088;43.238;23.110;2022-07-06T03:45:50;96427.06;;;20.98;98.89
39363;BME280;25088;43.238;23.110;2022-07-06T03:48:16;96434.91;;;21.04;98.79
39363;BME280;25088;43.238;23.110;2022-07-06T03:50:42;96419.22;;;20.91;98.97
39363;BME280;25088;43.238;23.110;2022-07-06T03:53:07;96431.47;;;21.07;99.22
39363;BME280;25088;43.238;23.110;2022-07-06T03:55:33;96428.69;;;21.07;98.84
39363;BME280;25088;43.238;23.110;2022-07-06T03:57:58;96411.22;;;21.07;98.54
39363;BME280;25088;43.238;23.110;2022-07-06T04:00:24;96414.66;;;21.21;97.10
39363;BME280;25088;43.238;23.110;2022-07-06T04:02:49;96438.03;;;21.37;96.24
39363;BME280;25088;43.238;23.110;2022-07-06T04:05:15;96440.66;;;21.51;95.63
39363;BME280;25088;43.238;23.110;2022-07-06T04:07:42;96431.31;;;21.56;94.46
39363;BME280;25088;43.238;23.110;2022-07-06T04:10:08;96434.63;;;21.49;95.95
39363;BME280;25088;43.238;23.110;2022-07-06T04:12:43;96418.06;;;21.70;95.68
39363;BME280;25088;43.238;23.110;2022-07-06T04:15:10;96417.75;;;21.63;95.48
39363;BME280;25088;43.238;23.110;2022-07-06T04:17:36;96433.13;;;21.69;95.87
39363;BME280;25088;43.238;23.110;2022-07-06T04:20:17;96439.59;;;21.90;95.70
39363;BME280;25088;43.238;23.110;2022-07-06T04:22:43;96425.50;;;22.04;94.88
39363;BME280;25088;43.238;23.110;2022-07-06T04:25:09;96439.38;;;22.22;94.05
39363;BME280;25088;43.238;23.110;2022-07-06T04:27:34;96417.97;;;22.05;94.79
39363;BME280;25088;43.238;23.110;2022-07-06T04:30:01;96435.28;;;22.19;94.77
39363;BME280;25088;43.238;23.110;2022-07-06T04:32:26;96443.63;;;22.19;94.26
39363;BME280;25088;43.238;23.110;2022-07-06T04:34:52;96452.06;;;22.40;94.67
39363;BME280;25088;43.238;23.110;2022-07-06T04:37:17;96450.88;;;22.50;94.49
39363;BME280;25088;43.238;23.110;2022-07-06T04:39:43;96450.50;;;22.60;94.11
39363;BME280;25088;43.238;23.110;2022-07-06T04:42:08;96459.63;;;22.69;94.76
39363;BME280;25088;43.238;23.110;2022-07-06T04:44:34;96445.69;;;22.69;94.70
39363;BME280;25088;43.238;23.110;2022-07-06T04:46:59;96430.97;;;22.68;93.76
39363;BME280;25088;43.238;23.110;2022-07-06T04:49:25;96444.09;;;23.18;92.89
39363;BME280;25088;43.238;23.110;2022-07-06T04:51:50;96426.03;;;23.25;91.54
39363;BME280;25088;43.238;23.110;2022-07-06T04:54:16;96428.94;;;23.28;90.03
39363;BME280;25088;43.238;23.110;2022-07-06T04:56:42;96432.28;;;23.42;89.15
39363;BME280;25088;43.238;23.110;2022-07-06T04:59:07;96411.72;;;23.47;87.11
39363;BME280;25088;43.238;23.110;2022-07-06T05:01:33;96455.41;;;23.97;84.68
39363;BME280;25088;43.238;23.110;2022-07-06T05:03:59;96467.31;;;24.31;83.48
39363;BME280;25088;43.238;23.110;2022-07-06T05:06:25;96465.53;;;24.47;83.71
39363;BME280;25088;43.238;23.110;2022-07-06T05:08:51;96457.72;;;24.53;82.80
39363;BME280;25088;43.238;23.110;2022-07-06T05:11:16;96470.78;;;24.73;83.70
39363;BME280;25088;43.238;23.110;2022-07-06T05:13:42;96458.31;;;24.70;83.03
39363;BME280;25088;43.238;23.110;2022-07-06T05:16:08;96481.81;;;24.94;81.99
39363;BME280;25088;43.238;23.110;2022-07-06T05:18:33;96453.19;;;24.97;82.38
39363;BME280;25088;43.238;23.110;2022-07-06T05:20:59;96440.03;;;24.97;83.77
39363;BME280;25088;43.238;23.110;2022-07-06T05:23:25;96485.88;;;25.21;83.39
39363;BME280;25088;43.238;23.110;2022-07-06T05:25:50;96469.72;;;25.14;83.19
39363;BME280;25088;43.238;23.110;2022-07-06T05:28:16;96475.63;;;25.25;80.66
39363;BME280;25088;43.238;23.110;2022-07-06T05:30:41;96478.78;;;25.23;79.92
39363;BME280;25088;43.238;23.110;2022-07-06T05:33:07;96476.47;;;24.89;83.35
39363;BME280;25088;43.238;23.110;2022-07-06T05:35:32;96488.31;;;24.86;82.50
39363;BME280;25088;43.238;23.110;2022-07-06T05:37:58;96507.53;;;24.87;82.99
39363;BME280;25088;43.238;23.110;2022-07-06T05:40:23;96503.34;;;24.93;81.95
39363;BME280;25088;43.238;23.110;2022-07-06T05:42:49;96474.00;;;24.75;82.42
39363;BME280;25088;43.238;23.110;2022-07-06T05:45:14;96501.81;;;24.96;83.62
39363;BME280;25088;43.238;23.110;2022-07-06T05:47:40;96480.88;;;25.14;82.96
39363;BME280;25088;43.238;23.110;2022-07-06T05:50:24;96501.09;;;25.36;81.36
39363;BME280;25088;43.238;23.110;2022-07-06T05:53:04;96498.75;;;25.50;82.62
39363;BME280;25088;43.238;23.110;2022-07-06T05:55:30;96504.78;;;25.76;77.31
39363;BME280;25088;43.238;23.110;2022-07-06T05:57:56;96468.66;;;25.71;75.91
39363;BME280;25088;43.238;23.110;2022-07-06T06:00:23;96500.59;;;25.98;73.67
39363;BME280;25088;43.238;23.110;2022-07-06T06:02:49;96475.81;;;26.13;71.51
39363;BME280;25088;43.238;23.110;2022-07-06T06:05:15;96491.84;;;26.00;73.04
39363;BME280;25088;43.238;23.110;2022-07-06T06:07:41;96501.81;;;26.13;73.03
39363;BME280;25088;43.238;23.110;2022-07-06T06:10:11;96493.81;;;26.27;72.49
39363;BME280;25088;43.238;23.110;2022-07-06T06:12:38;96496.50;;;26.24;72.47
39363;BME280;25088;43.238;23.110;2022-07-06T06:15:04;96492.84;;;26.36;72.39
39363;BME280;25088;43.238;23.110;2022-07-06T06:17:30;96497.97;;;26.34;72.98
39363;BME280;25088;43.238;23.110;2022-07-06T06:19:57;96495.53;;;26.16;72.83
39363;BME280;25088;43.238;23.110;2022-07-06T06:22:23;96492.31;;;26.02;75.96
39363;BME280;25088;43.238;23.110;2022-07-06T06:24:48;96487.81;;;25.85;77.31
39363;BME280;25088;43.238;23.110;2022-07-06T06:27:14;96490.88;;;26.08;76.33
39363;BME280;25088;43.238;23.110;2022-07-06T06:29:40;96501.16;;;25.76;77.24
39363;BME280;25088;43.238;23.110;2022-07-06T06:32:06;96495.00;;;25.98;77.67
39363;BME280;25088;43.238;23.110;2022-07-06T06:34:32;96476.94;;;25.68;80.76
39363;BME280;25088;43.238;23.110;2022-07-06T06:36:57;96490.06;;;25.80;78.83
39363;BME280;25088;43.238;23.110;2022-07-06T06:39:23;96496.22;;;25.85;78.31
39363;BME280;25088;43.238;23.110;2022-07-06T06:41:49;96493.41;;;25.85;78.16
39363;BME280;25088;43.238;23.110;2022-07-06T06:44:14;96496.59;;;25.84;77.57
39363;BME280;25088;43.238;23.110;2022-07-06T06:46:41;96495.53;;;26.16;73.77
39363;BME280;25088;43.238;23.110;2022-07-06T06:49:06;96486.72;;;26.02;73.30
39363;BME280;25088;43.238;23.110;2022-07-06T06:51:32;96496.06;;;25.94;70.55
39363;BME280;25088;43.238;23.110;2022-07-06T06:53:58;96489.13;;;25.88;68.84
39363;BME280;25088;43.238;23.110;2022-07-06T06:56:24;96478.38;;;25.90;68.44
39363;BME280;25088;43.238;23.110;2022-07-06T06:58:49;96487.75;;;26.25;68.51
39363;BME280;25088;43.238;23.110;2022-07-06T07:01:15;96481.59;;;26.48;69.10
39363;BME280;25088;43.238;23.110;2022-07-06T07:03:40;96453.88;;;26.43;71.64
39363;BME280;25088;43.238;23.110;2022-07-06T07:06:06;96492.25;;;26.74;72.07
39363;BME280;25088;43.238;23.110;2022-07-06T07:08:32;96472.53;;;26.70;69.18
39363;BME280;25088;43.238;23.110;2022-07-06T07:10:57;96464.88;;;26.67;68.75
39363;BME280;25088;43.238;23.110;2022-07-06T07:13:23;96474.38;;;26.63;67.96
39363;BME280;25088;43.238;23.110;2022-07-06T07:15:49;96457.66;;;26.50;67.95
39363;BME280;25088;43.238;23.110;2022-07-06T07:18:15;96448.50;;;26.38;67.72
39363;BME280;25088;43.238;23.110;2022-07-06T07:20:40;96491.31;;;26.38;74.86
39363;BME280;25088;43.238;23.110;2022-07-06T07:23:06;96483.06;;;26.29;77.35
39363;BME280;25088;43.238;23.110;2022-07-06T07:25:31;96480.75;;;26.03;79.71
39363;BME280;25088;43.238;23.110;2022-07-06T07:27:56;96480.06;;;25.78;81.30
39363;BME280;25088;43.238;23.110;2022-07-06T07:30:22;96485.81;;;25.58;82.35
39363;BME280;25088;43.238;23.110;2022-07-06T07:32:48;96490.38;;;25.50;82.54
39363;BME280;25088;43.238;23.110;2022-07-06T07:35:13;96490.94;;;25.56;82.69
39363;BME280;25088;43.238;23.110;2022-07-06T07:37:39;96485.56;;;25.63;81.47
39363;BME280;25088;43.238;23.110;2022-07-06T07:40:05;96482.59;;;25.84;79.59
39363;BME280;25088;43.238;23.110;2022-07-06T07:42:31;96481.81;;;26.27;75.95
39363;BME280;25088;43.238;23.110;2022-07-06T07:44:56;96484.50;;;26.67;74.59
39363;BME280;25088;43.238;23.110;2022-07-06T07:47:23;96477.53;;;27.09;71.28
39363;BME280;25088;43.238;23.110;2022-07-06T07:49:49;96471.97;;;27.28;65.90
39363;BME280;25088;43.238;23.110;2022-07-06T07:52:15;96475.22;;;28.04;61.91
39363;BME280;25088;43.238;23.110;2022-07-06T07:54:40;96473.06;;;28.59;60.15
39363;BME280;25088;43.238;23.110;2022-07-06T07:57:06;96444.78;;;28.06;58.58
39363;BME280;25088;43.238;23.110;2022-07-06T07:59:32;96448.91;;;28.12;59.82
39363;BME280;25088;43.238;23.110;2022-07-06T08:01:57;96475.50;;;28.18;58.76
39363;BME280;25088;43.238;23.110;2022-07-06T08:04:23;96462.34;;;28.65;57.28
39363;BME280;25088;43.238;23.110;2022-07-06T08:06:49;96461.81;;;29.31;55.74
39363;BME280;25088;43.238;23.110;2022-07-06T08:09:15;96467.75;;;29.53;52.06
39363;BME280;25088;43.238;23.110;2022-07-06T08:11:42;96466.41;;;29.70;51.64
39363;BME280;25088;43.238;23.110;2022-07-06T08:14:08;96463.56;;;30.00;48.84
39363;BME280;25088;43.238;23.110;2022-07-06T08:16:34;96467.22;;;30.04;49.58
39363;BME280;25088;43.238;23.110;2022-07-06T08:18:59;96464.06;;;30.83;49.20
39363;BME280;25088;43.238;23.110;2022-07-06T08:21:26;96471.97;;;31.74;45.32
39363;BME280;25088;43.238;23.110;2022-07-06T08:23:52;96471.91;;;32.64;42.14
39363;BME280;25088;43.238;23.110;2022-07-06T08:26:18;96468.31;;;32.96;40.68
39363;BME280;25088;43.238;23.110;2022-07-06T08:28:44;96469.00;;;33.86;38.62
39363;BME280;25088;43.238;23.110;2022-07-06T08:31:09;96471.53;;;33.37;40.01
39363;BME280;25088;43.238;23.110;2022-07-06T08:33:35;96473.16;;;32.88;39.48
39363;BME280;25088;43.238;23.110;2022-07-06T08:36:00;96469.88;;;32.65;38.94
39363;BME280;25088;43.238;23.110;2022-07-06T08:38:26;96468.53;;;32.16;40.62
39363;BME280;25088;43.238;23.110;2022-07-06T08:40:52;96458.97;;;32.60;40.08
39363;BME280;25088;43.238;23.110;2022-07-06T08:43:17;96464.66;;;33.46;39.46
39363;BME280;25088;43.238;23.110;2022-07-06T08:45:44;96463.97;;;34.36;37.04
39363;BME280;25088;43.238;23.110;2022-07-06T08:48:12;96463.38;;;33.79;37.94
39363;BME280;25088;43.238;23.110;2022-07-06T08:50:38;96463.84;;;33.59;38.67
39363;BME280;25088;43.238;23.110;2022-07-06T08:53:04;96466.69;;;33.24;38.29
39363;BME280;25088;43.238;23.110;2022-07-06T08:55:30;96459.41;;;33.12;39.78
39363;BME280;25088;43.238;23.110;2022-07-06T08:57:56;96463.59;;;31.91;42.46
39363;BME280;25088;43.238;23.110;2022-07-06T09:00:25;96466.34;;;31.15;43.27
39363;BME280;25088;43.238;23.110;2022-07-06T09:02:51;96466.41;;;30.78;44.22
39363;BME280;25088;43.238;23.110;2022-07-06T09:05:21;96477.78;;;30.85;44.27
39363;BME280;25088;43.238;23.110;2022-07-06T09:07:49;96479.47;;;30.97;46.26
39363;BME280;25088;43.238;23.110;2022-07-06T09:10:18;96476.94;;;31.32;45.40
39363;BME280;25088;43.238;23.110;2022-07-06T09:12:44;96451.13;;;32.00;43.34
39363;BME280;25088;43.238;23.110;2022-07-06T09:15:10;96472.81;;;31.81;43.63
39363;BME280;25088;43.238;23.110;2022-07-06T09:17:40;96457.78;;;32.57;42.69
39363;BME280;25088;43.238;23.110;2022-07-06T09:20:12;96454.53;;;33.62;41.68
39363;BME280;25088;43.238;23.110;2022-07-06T09:22:39;96462.06;;;34.08;40.32
39363;BME280;25088;43.238;23.110;2022-07-06T09:25:13;96463.19;;;34.29;40.38
39363;BME280;25088;43.238;23.110;2022-07-06T09:27:44;96468.22;;;34.69;39.14
39363;BME280;25088;43.238;23.110;2022-07-06T09:30:15;96464.53;;;34.76;39.16
39363;BME280;25088;43.238;23.110;2022-07-06T09:32:45;96466.47;;;34.20;41.18
39363;BME280;25088;43.238;23.110;2022-07-06T09:38:11;96469.34;;;32.20;43.23
39363;BME280;25088;43.238;23.110;2022-07-06T09:40:44;96449.38;;;31.74;44.41
39363;BME280;25088;43.238;23.110;2022-07-06T09:45:37;96471.13;;;33.57;41.69
39363;BME280;25088;43.238;23.110;2022-07-06T09:48:13;96450.38;;;34.76;38.78
39363;BME280;25088;43.238;23.110;2022-07-06T09:50:43;96439.59;;;35.88;39.15
39363;BME280;25088;43.238;23.110;2022-07-06T09:53:10;96448.06;;;35.57;36.82
39363;BME280;25088;43.238;23.110;2022-07-06T09:55:36;96449.34;;;36.21;37.13
39363;BME280;25088;43.238;23.110;2022-07-06T09:58:03;96447.25;;;35.94;36.63
39363;BME280;25088;43.238;23.110;2022-07-06T10:00:28;96442.44;;;35.05;37.84
39363;BME280;25088;43.238;23.110;2022-07-06T10:02:54;96458.59;;;33.51;40.18
39363;BME280;25088;43.238;23.110;2022-07-06T10:05:23;96452.88;;;32.36;42.46
39363;BME280;25088;43.238;23.110;2022-07-06T10:07:59;96448.88;;;31.57;44.44
39363;BME280;25088;43.238;23.110;2022-07-06T10:10:29;96454.31;;;31.25;45.88
39363;BME280;25088;43.238;23.110;2022-07-06T10:12:59;96433.47;;;30.85;47.60
39363;BME280;25088;43.238;23.110;2022-07-06T10:15:26;96436.47;;;30.62;46.70
39363;BME280;25088;43.238;23.110;2022-07-06T10:17:53;96450.59;;;30.25;47.40
39363;BME280;25088;43.238;23.110;2022-07-06T10:20:21;96447.88;;;29.99;48.83
39363;BME280;25088;43.238;23.110;2022-07-06T10:22:48;96456.63;;;29.60;48.71
39363;BME280;25088;43.238;23.110;2022-07-06T10:25:18;96458.75;;;29.40;49.95
39363;BME280;25088;43.238;23.110;2022-07-06T10:27:47;96483.78;;;29.22;51.45
39363;BME280;25088;43.238;23.110;2022-07-06T10:30:16;96461.69;;;28.98;53.83
39363;BME280;25088;43.238;23.110;2022-07-06T10:32:44;96461.03;;;29.04;53.52
39363;BME280;25088;43.238;23.110;2022-07-06T10:35:10;96464.13;;;28.76;53.72
39363;BME280;25088;43.238;23.110;2022-07-06T10:37:35;96463.25;;;28.72;54.66
39363;BME280;25088;43.238;23.110;2022-07-06T10:40:01;96464.56;;;28.78;54.44
39363;BME280;25088;43.238;23.110;2022-07-06T10:42:47;96472.00;;;28.67;56.82
39363;BME280;25088;43.238;23.110;2022-07-06T10:50:38;96470.34;;;27.27;59.69
39363;BME280;25088;43.238;23.110;2022-07-06T10:53:11;96481.22;;;27.13;63.75
39363;BME280;25088;43.238;23.110;2022-07-06T10:55:38;96483.94;;;26.62;65.61
39363;BME280;25088;43.238;23.110;2022-07-06T10:58:05;96483.69;;;26.51;68.95
39363;BME280;25088;43.238;23.110;2022-07-06T11:00:52;96480.66;;;26.00;72.29
39363;BME280;25088;43.238;23.110;2022-07-06T11:03:38;96485.00;;;25.97;75.01
39363;BME280;25088;43.238;23.110;2022-07-06T11:06:12;96483.81;;;25.98;76.83
39363;BME280;25088;43.238;23.110;2022-07-06T11:08:51;96471.75;;;26.54;71.65
39363;BME280;25088;43.238;23.110;2022-07-06T11:11:22;96476.44;;;26.82;71.13
39363;BME280;25088;43.238;23.110;2022-07-06T11:13:57;96476.34;;;27.45;68.91
39363;BME280;25088;43.238;23.110;2022-07-06T11:16:25;96479.16;;;27.45;69.94
39363;BME280;25088;43.238;23.110;2022-07-06T11:19:06;96476.34;;;27.45;70.09
39363;BME280;25088;43.238;23.110;2022-07-06T11:24:02;96446.38;;;27.49;69.30
39363;BME280;25088;43.238;23.110;2022-07-06T11:26:30;96451.91;;;28.42;66.19
39363;BME280;25088;43.238;23.110;2022-07-06T11:28:58;96463.97;;;28.66;62.32
39363;BME280;25088;43.238;23.110;2022-07-06T11:31:23;96451.38;;;28.82;59.21
39363;BME280;25088;43.238;23.110;2022-07-06T11:33:49;96479.25;;;28.91;60.81
39363;BME280;25088;43.238;23.110;2022-07-06T11:36:20;96479.56;;;28.86;61.47
39363;BME280;25088;43.238;23.110;2022-07-06T11:38:46;96479.31;;;28.72;59.03
39363;BME280;25088;43.238;23.110;2022-07-06T11:41:13;96479.88;;;28.81;59.03
39363;BME280;25088;43.238;23.110;2022-07-06T11:43:43;96479.50;;;29.05;58.18
39363;BME280;25088;43.238;23.110;2022-07-06T11:46:23;96463.00;;;29.30;56.47
39363;BME280;25088;43.238;23.110;2022-07-06T11:48:51;96459.47;;;30.68;50.45
39363;BME280;25088;43.238;23.110;2022-07-06T11:51:17;96457.19;;;31.98;47.12
39363;BME280;25088;43.238;23.110;2022-07-06T11:53:44;96455.34;;;32.81;46.08
39363;BME280;25088;43.238;23.110;2022-07-06T11:56:10;96455.50;;;34.26;42.83
39363;BME280;25088;43.238;23.110;2022-07-06T11:58:38;96447.41;;;34.24;43.15
39363;BME280;25088;43.238;23.110;2022-07-06T12:01:06;96443.31;;;35.47;39.53
39363;BME280;25088;43.238;23.110;2022-07-06T12:03:32;96442.13;;;35.41;40.03
39363;BME280;25088;43.238;23.110;2022-07-06T12:06:03;96438.91;;;35.77;38.20
39363;BME280;25088;43.238;23.110;2022-07-06T12:08:29;96439.94;;;36.55;35.58
39363;BME280;25088;43.238;23.110;2022-07-06T12:10:55;96454.59;;;37.07;35.70
39363;BME280;25088;43.238;23.110;2022-07-06T12:13:22;96434.38;;;37.48;35.53
39363;BME280;25088;43.238;23.110;2022-07-06T12:15:48;96450.38;;;38.06;34.63
39363;BME280;25088;43.238;23.110;2022-07-06T12:18:36;96452.38;;;37.65;34.48
39363;BME280;25088;43.238;23.110;2022-07-06T12:21:01;96448.72;;;37.18;34.67
39363;BME280;25088;43.238;23.110;2022-07-06T12:23:48;96444.06;;;37.94;34.35
39363;BME280;25088;43.238;23.110;2022-07-06T12:26:17;96434.75;;;37.50;33.63
39363;BME280;25088;43.238;23.110;2022-07-06T12:28:43;96438.34;;;37.31;33.99
39363;BME280;25088;43.238;23.110;2022-07-06T12:31:09;96440.13;;;36.98;34.62
39363;BME280;25088;43.238;23.110;2022-07-06T12:33:35;96428.69;;;37.48;34.74
39363;BME280;25088;43.238;23.110;2022-07-06T12:36:11;96439.53;;;37.77;34.04
39363;BME280;25088;43.238;23.110;2022-07-06T12:38:44;96434.09;;;37.63;33.63
39363;BME280;25088;43.238;23.110;2022-07-06T12:41:09;96429.00;;;37.07;34.16
39363;BME280;25088;43.238;23.110;2022-07-06T12:43:39;96425.78;;;37.72;32.94
39363;BME280;25088;43.238;23.110;2022-07-06T12:46:31;96425.69;;;37.32;34.24
39363;BME280;25088;43.238;23.110;2022-07-06T12:48:59;96432.50;;;37.15;34.19
39363;BME280;25088;43.238;23.110;2022-07-06T12:51:25;96411.50;;;36.55;34.66
39363;BME280;25088;43.238;23.110;2022-07-06T12:53:50;96410.91;;;36.09;35.74
39363;BME280;25088;43.238;23.110;2022-07-06T12:56:17;96410.78;;;36.20;35.83
39363;BME280;25088;43.238;23.110;2022-07-06T12:58:59;96408.16;;;36.90;34.34
39363;BME280;25088;43.238;23.110;2022-07-06T13:01:25;96393.25;;;37.49;33.91